Time;durP1;ratioP1;P1;durP2;ratioP2;P2;SDS_P1;SDS_P2;PMS_P1;PMS_P2;Temp;Humidity;BMP_temperature;BMP_pressure;BME280_temperature;BME280_humidity;BME280_pressure;Samples;Min_cycle;Max_cycle;Signal;HPM_P1;HPM_P2
2022/03/24 00:00:23;;;;;;;17.73;11.07;;;7.00;51.00;;;;;;5008840;28;20350;-88
2022/03/24 00:02:49;;;;;;;19.27;11.73;;;7.00;51.10;;;;;;5003575;28;20033;-89
2022/03/24 00:05:14;;;;;;;19.85;11.65;;;7.00;51.20;;;;;;4994262;28;20029;-88
2022/03/24 00:07:41;;;;;;;20.30;11.30;;;7.00;51.20;;;;;;4988910;28;20368;-90
2022/03/24 00:10:07;;;;;;;20.27;12.07;;;6.90;51.00;;;;;;4986700;28;20026;-89
2022/03/24 00:12:34;;;;;;;21.42;11.60;;;6.90;51.10;;;;;;4987185;28;20052;-89
2022/03/24 00:15:01;;;;;;;19.70;12.05;;;6.80;51.20;;;;;;4989174;28;20061;-88
2022/03/24 00:17:26;;;;;;;19.65;12.23;;;6.70;51.50;;;;;;5001571;28;20114;-87
2022/03/24 00:19:52;;;;;;;19.95;12.57;;;6.70;51.70;;;;;;4986546;28;20121;-89
2022/03/24 00:22:18;;;;;;;27.65;12.88;;;6.70;51.80;;;;;;4991938;28;20033;-91
2022/03/24 00:24:43;;;;;;;26.15;13.32;;;6.60;51.90;;;;;;4997314;28;20494;-90
2022/03/24 00:27:09;;;;;;;21.83;13.35;;;6.70;52.00;;;;;;4990329;28;20117;-91
2022/03/24 00:29:35;;;;;;;22.42;12.73;;;6.70;51.80;;;;;;4994945;28;20030;-90
2022/03/24 00:32:00;;;;;;;20.35;11.02;;;6.70;51.80;;;;;;4989903;28;20026;-90
2022/03/24 00:34:26;;;;;;;17.48;11.57;;;6.70;51.80;;;;;;5010364;28;20081;-90
2022/03/24 00:36:51;;;;;;;20.52;11.75;;;6.60;52.10;;;;;;5012179;28;20021;-90
2022/03/24 00:39:17;;;;;;;20.70;11.38;;;6.60;52.20;;;;;;4992078;28;20034;-89
2022/03/24 00:41:43;;;;;;;22.85;11.98;;;6.50;52.10;;;;;;4996434;28;20117;-91
2022/03/24 00:44:09;;;;;;;24.25;11.32;;;6.50;52.20;;;;;;4997420;28;20029;-90
2022/03/24 00:46:35;;;;;;;19.92;11.18;;;6.50;52.30;;;;;;5009819;28;20018;-89
2022/03/24 00:49:01;;;;;;;20.83;11.80;;;6.40;52.10;;;;;;5010304;28;20018;-89
2022/03/24 00:51:26;;;;;;;21.25;12.25;;;6.30;52.20;;;;;;4994298;28;20028;-90
2022/03/24 00:53:53;;;;;;;20.05;11.45;;;6.30;52.70;;;;;;5002423;28;20026;-89
2022/03/24 00:56:18;;;;;;;17.67;10.93;;;6.20;52.70;;;;;;4986671;28;20045;-89
2022/03/24 00:58:44;;;;;;;18.00;11.40;;;6.20;52.80;;;;;;5009695;28;20018;-89
2022/03/24 01:01:12;;;;;;;18.33;11.68;;;6.20;53.10;;;;;;5000109;28;20033;-89
2022/03/24 01:03:39;;;;;;;19.48;12.07;;;6.10;53.00;;;;;;4997074;28;20037;-90
2022/03/24 01:06:07;;;;;;;18.65;11.73;;;6.10;52.90;;;;;;4992230;28;20033;-89
2022/03/24 01:08:34;;;;;;;18.70;11.75;;;6.00;52.80;;;;;;4997058;28;20018;-90
2022/03/24 01:11:01;;;;;;;21.45;11.65;;;5.90;52.70;;;;;;4999727;28;20026;-90
2022/03/24 01:13:28;;;;;;;18.00;11.20;;;5.70;52.70;;;;;;5005492;28;20291;-89
2022/03/24 01:15:54;;;;;;;18.30;11.45;;;5.60;53.10;;;;;;4993045;28;20096;-89
2022/03/24 01:18:20;;;;;;;18.88;10.63;;;5.60;53.60;;;;;;4999284;28;20030;-88
2022/03/24 01:20:46;;;;;;;19.15;11.07;;;5.60;53.70;;;;;;5013106;28;20073;-89
2022/03/24 01:23:13;;;;;;;18.92;11.43;;;5.60;53.80;;;;;;4998187;28;20056;-90
2022/03/24 01:25:41;;;;;;;19.90;11.63;;;5.60;53.90;;;;;;4996995;28;20026;-88
2022/03/24 01:28:08;;;;;;;18.85;11.25;;;5.60;53.80;;;;;;5012162;28;20478;-89
2022/03/24 01:30:34;;;;;;;20.75;11.52;;;5.60;53.70;;;;;;4995743;28;20025;-89
2022/03/24 01:32:59;;;;;;;20.13;11.40;;;5.50;54.30;;;;;;5011360;28;20479;-90
2022/03/24 01:35:25;;;;;;;17.95;9.88;;;5.50;53.70;;;;;;4988911;28;20120;-89
2022/03/24 01:37:51;;;;;;;17.83;10.68;;;5.50;53.80;;;;;;4983833;28;20148;-90
2022/03/24 01:40:17;;;;;;;18.13;10.25;;;5.30;53.60;;;;;;5001768;28;20034;-90
2022/03/24 01:42:43;;;;;;;15.32;10.05;;;5.20;53.50;;;;;;5003347;28;20034;-88
2022/03/24 01:45:10;;;;;;;22.63;10.82;;;5.10;53.70;;;;;;5024746;28;20010;-87
2022/03/24 01:47:36;;;;;;;16.17;10.27;;;5.00;53.90;;;;;;5033399;28;20054;-88
2022/03/24 01:50:04;;;;;;;17.33;10.23;;;5.00;54.10;;;;;;5012411;28;20398;-90
2022/03/24 01:52:30;;;;;;;16.45;10.98;;;5.00;54.30;;;;;;4997094;28;20467;-89
2022/03/24 01:54:57;;;;;;;15.68;9.93;;;5.00;54.40;;;;;;4987565;28;20029;-89
2022/03/24 01:57:25;;;;;;;17.50;10.85;;;5.00;54.50;;;;;;5012718;28;20670;-91
2022/03/24 01:59:51;;;;;;;20.17;10.50;;;5.00;54.40;;;;;;4996046;28;20386;-91
2022/03/24 02:02:17;;;;;;;20.95;9.95;;;5.00;54.40;;;;;;4992263;28;20030;-89
2022/03/24 02:04:43;;;;;;;17.70;10.85;;;5.00;54.60;;;;;;5006636;28;20022;-90
2022/03/24 02:07:10;;;;;;;23.00;10.63;;;5.00;54.70;;;;;;5000201;28;20645;-90
2022/03/24 02:09:37;;;;;;;15.25;9.90;;;4.90;54.70;;;;;;5012819;28;20021;-90
2022/03/24 02:12:07;;;;;;;21.20;11.07;;;4.90;54.50;;;;;;5012782;28;20025;-90
2022/03/24 02:14:34;;;;;;;15.43;9.80;;;4.90;54.70;;;;;;4995859;28;20209;-90
2022/03/24 02:17:00;;;;;;;19.02;11.07;;;4.80;54.60;;;;;;4992280;28;20402;-90
2022/03/24 02:19:28;;;;;;;17.73;10.68;;;4.80;54.90;;;;;;5010434;28;20033;-88
2022/03/24 02:22:05;;;;;;;14.20;10.00;;;4.80;55.00;;;;;;5007331;28;20073;-90
2022/03/24 02:24:31;;;;;;;17.70;10.55;;;4.80;55.00;;;;;;4994453;28;20309;-89
2022/03/24 02:26:59;;;;;;;17.27;9.73;;;4.80;55.10;;;;;;4998080;28;20048;-90
2022/03/24 02:29:25;;;;;;;16.70;9.93;;;4.80;55.00;;;;;;5000173;28;20030;-88
2022/03/24 02:31:52;;;;;;;19.92;10.80;;;4.80;55.00;;;;;;5006916;28;20026;-89
2022/03/24 02:34:38;;;;;;;18.02;10.70;;;4.70;55.00;;;;;;4999225;28;20029;-89
2022/03/24 02:37:09;;;;;;;15.38;9.88;;;4.60;55.00;;;;;;4993462;28;20034;-89
2022/03/24 02:39:43;;;;;;;18.47;10.33;;;4.60;55.10;;;;;;5081622;22;20029;-89
2022/03/24 02:42:14;;;;;;;16.77;10.50;;;4.60;55.00;;;;;;4959158;28;20379;-89
2022/03/24 02:44:45;;;;;;;14.88;9.35;;;4.50;55.20;;;;;;4963093;28;20034;-89
2022/03/24 02:47:11;;;;;;;19.35;10.52;;;4.40;55.40;;;;;;4979625;28;20050;-89
2022/03/24 02:49:39;;;;;;;19.02;10.52;;;4.50;55.60;;;;;;4956006;28;20032;-89
2022/03/24 02:52:06;;;;;;;17.30;10.43;;;4.50;55.60;;;;;;4975854;28;20066;-90
2022/03/24 02:54:32;;;;;;;21.77;11.15;;;4.50;55.50;;;;;;4969674;28;20023;-88
2022/03/24 02:56:58;;;;;;;20.25;10.77;;;4.50;55.60;;;;;;4964495;28;20508;-89
2022/03/24 02:59:25;;;;;;;16.65;10.07;;;4.50;55.70;;;;;;4956774;28;20027;-90
2022/03/24 03:01:53;;;;;;;18.23;10.63;;;4.50;55.70;;;;;;4983098;28;20080;-90
2022/03/24 03:04:20;;;;;;;17.17;10.38;;;4.40;55.60;;;;;;4965453;28;20030;-89
2022/03/24 03:06:45;;;;;;;18.48;10.35;;;4.40;55.60;;;;;;4958265;28;20517;-89
2022/03/24 03:09:15;;;;;;;18.15;10.48;;;4.40;55.60;;;;;;4978256;28;20034;-88
2022/03/24 03:11:43;;;;;;;17.13;10.07;;;4.30;55.70;;;;;;4970716;28;20042;-90
2022/03/24 03:14:11;;;;;;;18.13;10.70;;;4.30;55.80;;;;;;4966192;28;20041;-90
2022/03/24 03:16:38;;;;;;;19.45;12.15;;;4.20;55.90;;;;;;4963953;28;20034;-89
2022/03/24 03:19:04;;;;;;;17.08;10.93;;;4.20;56.00;;;;;;4958757;28;20172;-88
2022/03/24 03:21:29;;;;;;;19.67;11.50;;;4.20;56.10;;;;;;4965695;28;20026;-89
2022/03/24 03:23:55;;;;;;;21.17;11.70;;;4.20;56.10;;;;;;4956913;28;20027;-89
2022/03/24 03:26:23;;;;;;;25.05;12.07;;;4.20;56.30;;;;;;4956312;28;20687;-90
2022/03/24 03:28:52;;;;;;;22.85;12.13;;;4.10;56.30;;;;;;4969062;28;20026;-86
2022/03/24 03:31:19;;;;;;;21.15;12.20;;;4.10;56.30;;;;;;4971153;28;20038;-87
2022/03/24 03:33:45;;;;;;;21.73;12.27;;;4.10;56.40;;;;;;4973893;28;20015;-87
2022/03/24 03:36:11;;;;;;;20.52;12.13;;;4.10;56.40;;;;;;4966983;28;20084;-86
2022/03/24 03:38:36;;;;;;;21.95;12.20;;;4.00;56.50;;;;;;4964505;28;20068;-89
2022/03/24 03:41:02;;;;;;;19.73;12.68;;;4.00;56.50;;;;;;4963678;28;20027;-88
2022/03/24 03:43:29;;;;;;;22.77;12.40;;;3.90;56.50;;;;;;4965393;28;20034;-89
2022/03/24 03:45:55;;;;;;;22.00;12.30;;;3.90;56.50;;;;;;4956609;28;20439;-89
2022/03/24 03:48:21;;;;;;;20.17;12.35;;;3.80;56.50;;;;;;4972930;28;20038;-85
2022/03/24 03:50:48;;;;;;;23.50;12.68;;;3.70;56.70;;;;;;4971237;28;20024;-89
2022/03/24 03:53:14;;;;;;;20.73;12.05;;;3.70;56.80;;;;;;4959450;28;20031;-89
2022/03/24 03:55:40;;;;;;;23.33;12.95;;;3.70;57.00;;;;;;4955334;28;20029;-89
2022/03/24 03:58:07;;;;;;;22.23;12.35;;;3.80;57.20;;;;;;4959282;28;20031;-88
2022/03/24 04:00:52;;;;;;;22.50;11.77;;;3.80;57.20;;;;;;4969772;28;20058;-88
2022/03/24 04:03:25;;;;;;;21.17;11.05;;;3.80;57.10;;;;;;4963293;28;20455;-88
2022/03/24 04:05:56;;;;;;;19.00;10.35;;;3.70;56.90;;;;;;4958433;28;20478;-88
2022/03/24 04:08:22;;;;;;;20.13;10.15;;;3.60;56.90;;;;;;4954653;28;20105;-88
2022/03/24 04:10:52;;;;;;;18.92;10.38;;;3.50;56.80;;;;;;4966074;28;20428;-89
2022/03/24 04:13:19;;;;;;;17.60;10.02;;;3.50;57.00;;;;;;4960672;28;20039;-88
2022/03/24 04:15:45;;;;;;;16.92;10.40;;;3.50;57.10;;;;;;4955401;28;20403;-89
2022/03/24 04:18:12;;;;;;;24.35;10.65;;;3.40;57.10;;;;;;4957625;28;20026;-88
2022/03/24 04:20:39;;;;;;;15.70;9.68;;;3.40;57.10;;;;;;4960332;28;20022;-88
2022/03/24 04:23:05;;;;;;;18.23;10.45;;;3.30;56.90;;;;;;4975591;28;20103;-89
2022/03/24 04:25:32;;;;;;;19.23;10.38;;;3.30;56.90;;;;;;4958615;28;20583;-87
2022/03/24 04:27:58;;;;;;;17.98;10.10;;;3.20;57.00;;;;;;4983947;28;20031;-86
2022/03/24 04:30:26;;;;;;;17.20;10.43;;;3.20;57.10;;;;;;4985573;28;20082;-88
2022/03/24 04:32:52;;;;;;;17.90;10.85;;;3.10;57.30;;;;;;4980968;28;20075;-87
2022/03/24 04:35:18;;;;;;;15.63;9.95;;;3.10;57.50;;;;;;4952158;28;20521;-88
2022/03/24 04:37:44;;;;;;;16.58;10.23;;;3.10;57.60;;;;;;4958824;28;20031;-87
2022/03/24 04:40:11;;;;;;;20.27;10.27;;;3.20;57.60;;;;;;4964414;28;20031;-88
2022/03/24 04:42:41;;;;;;;17.48;10.90;;;3.20;57.50;;;;;;4960501;28;20040;-87
2022/03/24 04:45:09;;;;;;;16.73;10.32;;;3.20;57.50;;;;;;4955820;28;20027;-89
2022/03/24 04:47:34;;;;;;;15.07;9.75;;;3.20;57.40;;;;;;4956311;28;20377;-88
2022/03/24 04:50:00;;;;;;;15.18;9.80;;;3.20;57.50;;;;;;4953932;28;20123;-87
2022/03/24 04:52:26;;;;;;;19.60;10.13;;;3.10;57.60;;;;;;4953083;28;20114;-88
2022/03/24 04:54:52;;;;;;;17.02;10.00;;;3.10;57.60;;;;;;4960613;28;20085;-89
2022/03/24 04:57:17;;;;;;;16.08;9.85;;;3.10;57.70;;;;;;4957012;28;20089;-89
2022/03/24 04:59:43;;;;;;;17.33;10.63;;;3.10;57.60;;;;;;4970174;28;20497;-88
2022/03/24 05:02:12;;;;;;;16.25;10.40;;;3.10;57.70;;;;;;4973946;28;20363;-90
2022/03/24 05:04:37;;;;;;;17.25;10.20;;;3.10;57.80;;;;;;4958208;28;20031;-89
2022/03/24 05:07:03;;;;;;;16.77;10.55;;;3.00;57.80;;;;;;4955604;28;20042;-88
2022/03/24 05:09:29;;;;;;;15.85;10.65;;;3.00;57.80;;;;;;4972359;28;20163;-87
2022/03/24 05:11:55;;;;;;;18.42;10.82;;;3.00;57.90;;;;;;4966547;28;20030;-88
2022/03/24 05:14:20;;;;;;;21.23;10.55;;;3.00;57.90;;;;;;4976969;28;20074;-89
2022/03/24 05:16:46;;;;;;;17.15;9.82;;;3.00;57.80;;;;;;4959992;28;20026;-89
2022/03/24 05:19:13;;;;;;;18.00;10.02;;;3.00;57.90;;;;;;4957575;28;20041;-89
2022/03/24 05:21:38;;;;;;;17.42;10.48;;;3.00;57.90;;;;;;4959208;28;20022;-89
2022/03/24 05:24:04;;;;;;;17.83;9.90;;;2.90;57.90;;;;;;4957683;28;20090;-89
2022/03/24 05:26:43;;;;;;;16.92;10.55;;;2.90;57.90;;;;;;4968917;28;20037;-87
2022/03/24 05:29:09;;;;;;;17.15;10.68;;;2.90;58.10;;;;;;4978613;28;20108;-87
2022/03/24 05:31:35;;;;;;;19.40;10.55;;;2.90;58.00;;;;;;4972340;28;20186;-87
2022/03/24 05:34:00;;;;;;;17.23;10.60;;;2.90;58.00;;;;;;4988441;28;20047;-87
2022/03/24 05:36:26;;;;;;;19.95;10.75;;;2.90;58.00;;;;;;4971690;28;20314;-87
2022/03/24 05:38:52;;;;;;;17.90;9.80;;;3.00;58.00;;;;;;4973415;28;20035;-89
2022/03/24 05:41:18;;;;;;;19.15;10.63;;;3.00;58.00;;;;;;4965681;28;20086;-89
2022/03/24 05:46:33;;;;;;;18.27;9.57;;;3.00;58.20;;;;;;4975676;28;20034;-89
2022/03/24 05:48:59;;;;;;;18.38;10.60;;;3.00;58.20;;;;;;4963256;28;20026;-89
2022/03/24 05:51:25;;;;;;;19.42;10.00;;;3.00;58.00;;;;;;4958896;28;20488;-89
2022/03/24 05:53:51;;;;;;;18.25;10.43;;;3.00;58.00;;;;;;4962314;28;20119;-88
2022/03/24 05:56:18;;;;;;;18.13;10.93;;;3.00;58.00;;;;;;4973975;28;20042;-89
2022/03/24 05:58:43;;;;;;;19.63;10.73;;;2.90;58.00;;;;;;4965178;28;20627;-88
2022/03/24 06:01:09;;;;;;;19.02;10.02;;;2.90;58.10;;;;;;4973791;28;20037;-89
2022/03/24 06:03:36;;;;;;;16.33;10.50;;;2.90;58.20;;;;;;4977826;28;20033;-89
2022/03/24 06:06:06;;;;;;;19.67;11.07;;;2.90;58.40;;;;;;4961126;28;20019;-89
2022/03/24 06:08:33;;;;;;;19.42;10.60;;;3.00;58.50;;;;;;4964723;28;20138;-89
2022/03/24 06:11:00;;;;;;;18.77;11.52;;;3.00;58.40;;;;;;4964265;28;20033;-90
2022/03/24 06:13:26;;;;;;;20.77;10.88;;;3.10;58.60;;;;;;4961319;28;20019;-89
2022/03/24 06:15:53;;;;;;;20.27;11.20;;;3.10;58.80;;;;;;4951339;28;20022;-88
2022/03/24 06:18:19;;;;;;;19.20;11.13;;;3.20;58.70;;;;;;4972954;28;20046;-88
2022/03/24 06:20:46;;;;;;;17.52;11.20;;;3.30;58.70;;;;;;4976317;28;20455;-88
2022/03/24 06:23:11;;;;;;;22.80;11.85;;;3.40;58.50;;;;;;4959153;28;20110;-87
2022/03/24 06:25:38;;;;;;;20.45;10.95;;;3.50;58.40;;;;;;4958321;28;20110;-88
2022/03/24 06:28:05;;;;;;;18.85;11.60;;;3.60;58.40;;;;;;4959738;28;20100;-88
2022/03/24 06:30:31;;;;;;;20.40;11.98;;;3.70;58.40;;;;;;4972300;28;20026;-86
2022/03/24 06:32:57;;;;;;;18.65;11.05;;;3.80;58.30;;;;;;4974521;28;20030;-86
2022/03/24 06:35:23;;;;;;;19.90;11.27;;;4.00;58.20;;;;;;4955280;28;21243;-90
2022/03/24 06:37:51;;;;;;;20.15;11.77;;;4.10;58.10;;;;;;4957152;28;20030;-91
2022/03/24 06:40:17;;;;;;;20.67;11.45;;;4.20;57.90;;;;;;4951971;28;21367;-90
2022/03/24 06:42:43;;;;;;;20.23;11.10;;;4.30;58.00;;;;;;4966445;28;20053;-89
2022/03/24 06:45:11;;;;;;;18.90;11.05;;;4.40;58.00;;;;;;4966121;28;20019;-89
2022/03/24 06:47:39;;;;;;;21.75;11.77;;;4.60;58.20;;;;;;4977225;28;20030;-87
2022/03/24 06:50:05;;;;;;;19.42;12.10;;;4.80;58.20;;;;;;4979168;28;20014;-88
2022/03/24 06:52:31;;;;;;;20.13;11.50;;;5.10;58.10;;;;;;4965720;28;20042;-90
2022/03/24 06:54:57;;;;;;;18.30;11.10;;;5.40;58.20;;;;;;4955218;28;20031;-89
2022/03/24 06:57:23;;;;;;;21.65;11.80;;;5.70;57.90;;;;;;4955685;28;20027;-90
2022/03/24 06:59:48;;;;;;;19.30;11.52;;;5.90;57.60;;;;;;4968449;28;20026;-87
2022/03/24 07:02:15;;;;;;;18.60;10.75;;;6.20;57.30;;;;;;4976137;28;20045;-87
2022/03/24 07:04:41;;;;;;;23.15;11.20;;;6.50;57.10;;;;;;4970700;28;20498;-87
2022/03/24 07:07:06;;;;;;;17.05;10.82;;;6.80;56.90;;;;;;4971949;28;20027;-88
2022/03/24 07:09:32;;;;;;;18.00;10.15;;;7.10;56.80;;;;;;4972842;28;20066;-87
2022/03/24 07:11:58;;;;;;;18.63;10.93;;;7.40;56.70;;;;;;4953537;28;20046;-88
2022/03/24 07:14:24;;;;;;;18.05;10.77;;;7.70;56.50;;;;;;4980075;28;20057;-88
2022/03/24 07:16:50;;;;;;;17.10;10.82;;;8.20;56.20;;;;;;4974180;28;20086;-87
2022/03/24 07:19:16;;;;;;;18.92;10.43;;;8.60;55.80;;;;;;4967884;28;20431;-86
2022/03/24 07:21:41;;;;;;;19.92;10.90;;;9.10;55.30;;;;;;4951821;28;20405;-86
2022/03/24 07:24:12;;;;;;;18.77;11.00;;;9.60;54.80;;;;;;4971620;28;20027;-91
2022/03/24 07:26:38;;;;;;;19.48;10.43;;;10.20;54.20;;;;;;4958704;28;20034;-91
2022/03/24 07:29:04;;;;;;;18.20;10.45;;;10.80;53.60;;;;;;4957613;28;20242;-90
2022/03/24 07:31:31;;;;;;;19.15;10.93;;;11.40;53.30;;;;;;4956458;28;20110;-91
2022/03/24 07:33:57;;;;;;;17.33;11.80;;;12.10;53.00;;;;;;4956692;28;20031;-89
2022/03/24 07:36:24;;;;;;;17.17;11.23;;;12.50;52.40;;;;;;4961783;28;20054;-92
2022/03/24 07:38:51;;;;;;;18.58;11.70;;;12.60;52.00;;;;;;4962552;28;20475;-92
2022/03/24 07:41:17;;;;;;;17.02;11.43;;;12.60;51.80;;;;;;4962302;28;20035;-92
2022/03/24 07:43:42;;;;;;;18.95;10.65;;;12.70;51.90;;;;;;4957269;28;20047;-90
2022/03/24 07:46:08;;;;;;;20.40;11.35;;;13.00;52.10;;;;;;4957960;28;20022;-92
2022/03/24 07:48:34;;;;;;;15.68;10.98;;;13.60;51.80;;;;;;4957430;28;20045;-93
2022/03/24 07:51:00;;;;;;;14.40;10.27;;;14.40;51.00;;;;;;4958590;28;20502;-92
2022/03/24 07:53:36;;;;;;;18.63;12.45;;;15.30;50.20;;;;;;4962044;28;20358;-93
2022/03/24 07:56:02;;;;;;;18.50;11.88;;;16.00;48.30;;;;;;4976360;28;20029;-94
2022/03/24 07:58:28;;;;;;;19.73;11.82;;;16.50;46.70;;;;;;4952205;28;20042;-88
2022/03/24 08:00:57;;;;;;;20.23;12.68;;;16.80;45.40;;;;;;4956082;28;20031;-88
2022/03/24 08:03:23;;;;;;;19.52;12.23;;;17.30;44.60;;;;;;4959221;28;20030;-90
2022/03/24 08:05:53;;;;;;;18.20;11.70;;;17.60;44.00;;;;;;4955093;28;20018;-94
2022/03/24 08:08:20;;;;;;;16.58;11.63;;;18.10;43.80;;;;;;4968867;28;20094;-91
2022/03/24 08:10:47;;;;;;;22.52;12.02;;;18.80;44.10;;;;;;4976047;28;20019;-90
2022/03/24 08:13:15;;;;;;;24.83;11.85;;;19.50;43.30;;;;;;4956940;28;20775;-91
2022/03/24 08:15:41;;;;;;;23.13;11.88;;;20.00;42.40;;;;;;4956763;28;20015;-92
2022/03/24 08:18:09;;;;;;;19.17;12.80;;;20.60;42.30;;;;;;4957372;28;20538;-90
2022/03/24 08:20:35;;;;;;;24.98;12.38;;;21.20;41.60;;;;;;4957863;28;20483;-93
2022/03/24 08:23:02;;;;;;;22.05;12.02;;;21.70;40.70;;;;;;4958334;28;20073;-90
2022/03/24 08:25:28;;;;;;;17.40;11.52;;;22.00;40.30;;;;;;4958420;28;20038;-92
2022/03/24 08:45:54;;;;;;;20.88;11.45;;;23.00;38.90;;;;;;5010542;28;20050;-91
2022/03/24 08:48:22;;;;;;;20.27;10.85;;;23.10;39.20;;;;;;4994379;28;20088;-91
2022/03/24 08:50:48;;;;;;;16.80;11.52;;;23.20;39.10;;;;;;4990188;28;20026;-93
2022/03/24 08:53:14;;;;;;;17.98;12.25;;;23.20;39.00;;;;;;4995051;28;20030;-92
2022/03/24 08:55:40;;;;;;;23.30;12.05;;;23.30;38.80;;;;;;4993559;28;20030;-89
2022/03/24 08:58:05;;;;;;;20.50;12.15;;;23.20;38.80;;;;;;4990109;28;20034;-88
2022/03/24 09:00:31;;;;;;;17.77;11.57;;;23.30;38.90;;;;;;4994045;28;20026;-87
2022/03/24 09:02:56;;;;;;;19.30;12.70;;;23.40;38.80;;;;;;4993267;28;20497;-88
2022/03/24 09:05:23;;;;;;;22.42;12.32;;;23.40;38.40;;;;;;4993382;28;20104;-90
2022/03/24 09:07:58;;;;;;;21.58;12.07;;;23.30;38.60;;;;;;5002106;28;20037;-88
2022/03/24 09:10:23;;;;;;;19.17;12.63;;;23.20;38.50;;;;;;4995535;28;20085;-90
2022/03/24 09:12:49;;;;;;;23.70;13.48;;;23.10;38.80;;;;;;4998181;28;20029;-88
2022/03/24 09:15:19;;;;;;;22.05;12.07;;;22.90;38.80;;;;;;5005190;28;20086;-91
2022/03/24 09:17:45;;;;;;;19.42;11.98;;;22.90;38.90;;;;;;5005437;28;20026;-91
2022/03/24 09:20:14;;;;;;;18.30;12.68;;;22.80;38.90;;;;;;5003239;28;20021;-90
2022/03/24 09:22:43;;;;;;;17.63;11.75;;;22.80;39.50;;;;;;5006469;28;20481;-92
2022/03/24 09:25:10;;;;;;;18.02;12.32;;;22.80;39.10;;;;;;4998231;28;20065;-91
2022/03/24 09:27:36;;;;;;;20.90;12.18;;;22.80;39.00;;;;;;4992253;28;20027;-90
2022/03/24 09:30:07;;;;;;;19.40;11.85;;;22.70;38.90;;;;;;4993635;28;20478;-92
2022/03/24 09:32:33;;;;;;;19.27;11.68;;;22.60;39.30;;;;;;4997355;28;20055;-89
2022/03/24 09:34:59;;;;;;;17.67;12.48;;;22.50;39.20;;;;;;4996958;28;20038;-91
2022/03/24 09:37:25;;;;;;;16.52;12.43;;;22.50;39.20;;;;;;4998242;28;20045;-91
2022/03/24 09:39:51;;;;;;;22.55;12.60;;;22.40;39.50;;;;;;4997444;28;20028;-91
2022/03/24 09:42:18;;;;;;;18.27;12.30;;;22.30;39.50;;;;;;4994476;28;20034;-91
2022/03/24 09:44:45;;;;;;;21.77;13.35;;;22.20;39.80;;;;;;4997169;28;20022;-92
2022/03/24 09:47:12;;;;;;;18.33;12.20;;;22.10;40.00;;;;;;4996970;28;20034;-92
2022/03/24 09:49:40;;;;;;;21.70;12.65;;;22.00;40.20;;;;;;4998243;28;20517;-92
2022/03/24 09:52:06;;;;;;;18.92;12.90;;;22.00;40.00;;;;;;4999661;28;20569;-90
2022/03/24 09:54:32;;;;;;;19.60;12.52;;;21.90;40.10;;;;;;4992506;28;20455;-91
2022/03/24 09:57:08;;;;;;;18.13;12.20;;;21.90;40.10;;;;;;4996487;28;20474;-92
2022/03/24 09:59:35;;;;;;;21.00;12.23;;;21.90;39.60;;;;;;5003533;28;20037;-92
2022/03/24 10:02:03;;;;;;;17.38;12.20;;;22.00;39.60;;;;;;5014954;28;20026;-91
2022/03/24 10:04:48;;;;;;;17.52;11.75;;;21.90;39.30;;;;;;4981222;28;20435;-91
2022/03/24 10:07:14;;;;;;;16.63;11.98;;;22.00;39.40;;;;;;4997559;28;20112;-91
2022/03/24 10:09:48;;;;;;;15.85;11.93;;;22.10;39.20;;;;;;4997182;28;20122;-90
2022/03/24 10:12:30;;;;;;;17.58;12.38;;;22.10;39.00;;;;;;4997994;28;20033;-90
2022/03/24 10:15:04;;;;;;;17.48;11.82;;;22.20;38.80;;;;;;4996758;28;20122;-91
2022/03/24 10:17:30;;;;;;;18.90;12.20;;;22.30;39.10;;;;;;4994921;28;20037;-91
2022/03/24 10:19:58;;;;;;;16.48;11.80;;;22.20;39.40;;;;;;5016264;28;20548;-91
2022/03/24 10:22:24;;;;;;;17.92;11.02;;;22.10;38.70;;;;;;4998925;28;20041;-91
2022/03/24 10:24:50;;;;;;;15.00;10.90;;;22.10;38.80;;;;;;4998398;28;20029;-90
2022/03/24 10:27:24;;;;;;;17.25;10.85;;;22.00;38.50;;;;;;4988142;28;20022;-91
2022/03/24 10:29:54;;;;;;;17.35;11.63;;;22.10;37.80;;;;;;5017181;28;20100;-90
2022/03/24 10:32:20;;;;;;;16.73;11.77;;;22.20;37.90;;;;;;4998832;28;20022;-91
2022/03/24 10:34:48;;;;;;;16.70;11.48;;;22.30;37.90;;;;;;5017764;28;20030;-90
2022/03/24 10:37:19;;;;;;;16.35;12.05;;;22.40;38.30;;;;;;5005662;28;20128;-92
2022/03/24 10:40:03;;;;;;;14.63;10.77;;;22.50;37.70;;;;;;5018679;28;20018;-91
2022/03/24 10:42:31;;;;;;;19.35;11.32;;;22.70;37.80;;;;;;5014263;28;20026;-91
2022/03/24 10:45:12;;;;;;;17.25;11.80;;;22.80;37.80;;;;;;5014779;28;20026;-92
2022/03/24 10:48:00;;;;;;;15.70;11.07;;;22.80;37.60;;;;;;4999127;28;20025;-91
2022/03/24 10:50:33;;;;;;;19.45;12.02;;;22.90;37.30;;;;;;4994881;28;20057;-89
2022/03/24 10:53:10;;;;;;;18.25;11.20;;;22.80;37.20;;;;;;4996619;28;20402;-90
2022/03/24 10:55:35;;;;;;;20.27;12.20;;;22.80;36.70;;;;;;4995985;28;20175;-90
2022/03/24 10:58:04;;;;;;;16.27;11.20;;;22.80;37.00;;;;;;4995201;28;20077;-87
2022/03/24 11:00:31;;;;;;;26.10;12.02;;;22.90;36.90;;;;;;5004249;28;20021;-87
2022/03/24 11:02:56;;;;;;;17.80;10.65;;;22.90;36.90;;;;;;4995704;28;20030;-87
2022/03/24 11:05:22;;;;;;;15.43;11.85;;;22.90;36.70;;;;;;5012588;28;20026;-91
2022/03/24 11:07:54;;;;;;;20.65;11.57;;;22.90;36.70;;;;;;4994377;28;20029;-90
2022/03/24 11:10:22;;;;;;;15.73;10.82;;;23.00;38.30;;;;;;4994998;28;20088;-90
2022/03/24 11:12:59;;;;;;;17.02;10.70;;;23.00;37.60;;;;;;4994295;28;20034;-90
2022/03/24 11:15:25;;;;;;;21.25;11.57;;;23.00;37.90;;;;;;4996949;28;20034;-91
2022/03/24 11:17:51;;;;;;;18.40;10.35;;;22.80;37.20;;;;;;4992879;28;20417;-90
2022/03/24 11:20:39;;;;;;;22.95;11.32;;;22.80;37.50;;;;;;4994833;28;20026;-89
2022/03/24 11:23:17;;;;;;;18.65;11.80;;;22.80;37.60;;;;;;4993950;28;20838;-91
2022/03/24 11:25:44;;;;;;;16.52;12.00;;;22.80;39.50;;;;;;4994330;28;20026;-90
2022/03/24 11:28:13;;;;;;;18.27;12.02;;;22.80;39.30;;;;;;4995938;28;20025;-90
2022/03/24 11:30:39;;;;;;;18.33;12.20;;;22.80;38.90;;;;;;4995232;28;20520;-90
2022/03/24 11:33:05;;;;;;;19.15;10.85;;;22.80;38.10;;;;;;4995955;28;20030;-90
2022/03/24 11:35:34;;;;;;;14.45;10.90;;;22.80;39.50;;;;;;4994514;28;20025;-90
2022/03/24 11:38:01;;;;;;;18.25;10.55;;;22.90;38.70;;;;;;5000157;28;20057;-89
2022/03/24 11:40:31;;;;;;;19.88;11.07;;;23.10;38.60;;;;;;5002493;28;20052;-90
2022/03/24 11:43:11;;;;;;;14.43;10.82;;;23.10;38.90;;;;;;4994538;28;20022;-90
2022/03/24 11:45:49;;;;;;;13.68;10.52;;;23.10;39.30;;;;;;4993376;28;20029;-90
2022/03/24 11:48:55;;;;;;;17.30;11.57;;;23.10;39.80;;;;;;4997403;28;20025;-92
2022/03/24 11:51:26;;;;;;;17.23;11.45;;;23.10;39.20;;;;;;4996377;28;20117;-90
2022/03/24 11:54:05;;;;;;;16.33;11.48;;;23.10;38.70;;;;;;4996061;28;20030;-89
2022/03/24 11:56:31;;;;;;;14.60;10.48;;;23.10;40.20;;;;;;4991771;28;21157;-88
2022/03/24 11:58:57;;;;;;;14.35;11.02;;;23.10;38.60;;;;;;4994472;28;20410;-89
2022/03/24 12:01:26;;;;;;;17.90;12.13;;;23.10;38.50;;;;;;4994667;28;20018;-88
2022/03/24 12:04:14;;;;;;;13.82;10.52;;;23.20;39.30;;;;;;5011656;28;20018;-91
2022/03/24 12:06:45;;;;;;;18.02;12.38;;;23.20;39.10;;;;;;5003314;28;20026;-88
2022/03/24 12:09:12;;;;;;;14.87;10.80;;;23.20;38.50;;;;;;4994873;28;20030;-88
2022/03/24 12:11:51;;;;;;;13.38;9.98;;;23.40;38.10;;;;;;4991510;28;20101;-87
2022/03/24 12:14:32;;;;;;;16.45;10.05;;;23.30;36.80;;;;;;5000502;28;20063;-87
2022/03/24 12:17:03;;;;;;;17.02;9.60;;;23.20;36.70;;;;;;5011864;28;20061;-88
2022/03/24 12:19:35;;;;;;;13.82;9.35;;;23.10;36.80;;;;;;4993449;28;20474;-88
2022/03/24 12:22:21;;;;;;;10.70;8.68;;;23.10;36.10;;;;;;5006510;28;20132;-88
2022/03/24 12:24:47;;;;;;;15.05;9.15;;;23.10;36.00;;;;;;4982494;28;20037;-88
2022/03/24 12:27:15;;;;;;;20.60;9.55;;;23.00;35.70;;;;;;4990590;28;20030;-88
2022/03/24 12:29:41;;;;;;;14.32;9.80;;;22.90;35.80;;;;;;5012284;28;20032;-89
2022/03/24 12:32:11;;;;;;;13.25;9.15;;;22.90;35.80;;;;;;5016740;28;20029;-89
2022/03/24 12:34:40;;;;;;;10.38;7.43;;;22.80;35.50;;;;;;4987622;28;20621;-90
2022/03/24 12:37:31;;;;;;;13.13;8.90;;;22.90;36.10;;;;;;5011054;28;20026;-90
2022/03/24 12:40:06;;;;;;;12.90;8.55;;;22.90;35.30;;;;;;4989479;28;20029;-88
2022/03/24 12:42:54;;;;;;;14.82;9.23;;;22.90;34.90;;;;;;4995795;28;20018;-87
2022/03/24 12:45:22;;;;;;;15.02;9.32;;;22.90;36.40;;;;;;4996221;28;20040;-88
2022/03/24 12:47:49;;;;;;;13.05;9.23;;;22.90;37.80;;;;;;5026000;28;20153;-87
2022/03/24 12:50:17;;;;;;;13.63;8.38;;;23.20;36.50;;;;;;5030330;28;20014;-88
2022/03/24 12:52:57;;;;;;;10.20;8.20;;;23.30;36.40;;;;;;5033764;28;20018;-89
2022/03/24 12:55:41;;;;;;;10.70;8.32;;;23.50;36.40;;;;;;4998121;28;20169;-90
2022/03/24 12:58:15;;;;;;;11.90;8.88;;;23.70;36.50;;;;;;4998700;28;20036;-88